sensor_id;sensor_type;location;lat;lon;timestamp;temperature;humidity
78467;SHT31;67759;51.972;5.650;2024-01-27T00:01:01;10.1;52.2
78467;SHT31;67759;51.972;5.650;2024-01-27T00:03:29;10.1;52.2
78467;SHT31;67759;51.972;5.650;2024-01-27T00:05:58;10.0;52.1
78467;SHT31;67759;51.972;5.650;2024-01-27T00:08:26;10.0;52.2
78467;SHT31;67759;51.972;5.650;2024-01-27T00:10:55;10.0;52.2
78467;SHT31;67759;51.972;5.650;2024-01-27T00:13:25;10.0;52.3
78467;SHT31;67759;51.972;5.650;2024-01-27T00:15:53;9.9;52.4
78467;SHT31;67759;51.972;5.650;2024-01-27T00:18:22;9.9;52.3
78467;SHT31;67759;51.972;5.650;2024-01-27T00:20:51;9.9;52.3
78467;SHT31;67759;51.972;5.650;2024-01-27T00:23:20;9.9;52.4
78467;SHT31;67759;51.972;5.650;2024-01-27T00:25:48;9.9;52.3
78467;SHT31;67759;51.972;5.650;2024-01-27T00:28:17;9.9;52.3
78467;SHT31;67759;51.972;5.650;2024-01-27T00:30:45;9.8;52.4
78467;SHT31;67759;51.972;5.650;2024-01-27T00:33:14;9.8;52.5
78467;SHT31;67759;51.972;5.650;2024-01-27T00:35:43;9.8;52.5
78467;SHT31;67759;51.972;5.650;2024-01-27T00:38:12;9.8;52.5
78467;SHT31;67759;51.972;5.650;2024-01-27T00:40:41;9.8;52.5
78467;SHT31;67759;51.972;5.650;2024-01-27T00:43:09;9.8;52.5
78467;SHT31;67759;51.972;5.650;2024-01-27T00:45:38;9.8;52.6
78467;SHT31;67759;51.972;5.650;2024-01-27T00:48:07;9.8;52.4
78467;SHT31;67759;51.972;5.650;2024-01-27T00:50:35;9.8;52.5
78467;SHT31;67759;51.972;5.650;2024-01-27T00:53:04;9.9;52.5
78467;SHT31;67759;51.972;5.650;2024-01-27T00:55:32;9.9;52.6
78467;SHT31;67759;51.972;5.650;2024-01-27T00:58:03;10.1;52.2
78467;SHT31;67759;51.972;5.650;2024-01-27T01:00:33;10.2;51.5
78467;SHT31;67759;51.972;5.650;2024-01-27T01:03:02;10.3;50.9
78467;SHT31;67759;51.972;5.650;2024-01-27T01:05:31;10.3;50.7
78467;SHT31;67759;51.972;5.650;2024-01-27T01:08:00;10.3;50.6
78467;SHT31;67759;51.972;5.650;2024-01-27T01:10:28;10.3;50.6
78467;SHT31;67759;51.972;5.650;2024-01-27T01:12:58;10.3;50.5
78467;SHT31;67759;51.972;5.650;2024-01-27T01:15:27;10.3;50.6
78467;SHT31;67759;51.972;5.650;2024-01-27T01:17:56;10.3;50.7
78467;SHT31;67759;51.972;5.650;2024-01-27T01:20:25;10.2;50.7
78467;SHT31;67759;51.972;5.650;2024-01-27T01:22:54;10.2;50.7
78467;SHT31;67759;51.972;5.650;2024-01-27T01:25:22;10.2;50.5
78467;SHT31;67759;51.972;5.650;2024-01-27T01:27:51;10.2;50.5
78467;SHT31;67759;51.972;5.650;2024-01-27T01:30:20;10.2;50.6
78467;SHT31;67759;51.972;5.650;2024-01-27T01:32:49;10.2;50.6
78467;SHT31;67759;51.972;5.650;2024-01-27T01:35:18;10.2;50.5
78467;SHT31;67759;51.972;5.650;2024-01-27T01:37:46;10.2;50.3
78467;SHT31;67759;51.972;5.650;2024-01-27T01:40:16;10.2;50.3
78467;SHT31;67759;51.972;5.650;2024-01-27T01:42:52;10.2;50.2
78467;SHT31;67759;51.972;5.650;2024-01-27T01:45:21;10.2;50.6
78467;SHT31;67759;51.972;5.650;2024-01-27T01:47:51;10.2;50.6
78467;SHT31;67759;51.972;5.650;2024-01-27T01:50:20;10.3;50.4
78467;SHT31;67759;51.972;5.650;2024-01-27T01:52:50;10.3;50.3
78467;SHT31;67759;51.972;5.650;2024-01-27T01:55:21;10.3;50.2
78467;SHT31;67759;51.972;5.650;2024-01-27T01:57:51;10.2;50.2
78467;SHT31;67759;51.972;5.650;2024-01-27T02:00:20;10.2;50.1
78467;SHT31;67759;51.972;5.650;2024-01-27T02:02:48;10.2;50.0
78467;SHT31;67759;51.972;5.650;2024-01-27T02:05:17;10.2;50.1
78467;SHT31;67759;51.972;5.650;2024-01-27T02:07:45;10.2;50.1
78467;SHT31;67759;51.972;5.650;2024-01-27T02:10:16;10.2;50.1
78467;SHT31;67759;51.972;5.650;2024-01-27T02:12:45;10.2;50.0
78467;SHT31;67759;51.972;5.650;2024-01-27T02:15:13;10.2;49.8
78467;SHT31;67759;51.972;5.650;2024-01-27T02:17:42;10.2;49.7
78467;SHT31;67759;51.972;5.650;2024-01-27T02:20:11;10.2;49.6
78467;SHT31;67759;51.972;5.650;2024-01-27T02:22:39;10.2;49.7
78467;SHT31;67759;51.972;5.650;2024-01-27T02:25:08;10.2;49.9
78467;SHT31;67759;51.972;5.650;2024-01-27T02:27:37;10.2;50.2
78467;SHT31;67759;51.972;5.650;2024-01-27T02:30:06;10.2;50.4
78467;SHT31;67759;51.972;5.650;2024-01-27T02:32:35;10.2;50.1
78467;SHT31;67759;51.972;5.650;2024-01-27T02:35:04;10.2;49.6
78467;SHT31;67759;51.972;5.650;2024-01-27T02:37:34;10.2;49.7
78467;SHT31;67759;51.972;5.650;2024-01-27T02:40:02;10.2;49.7
78467;SHT31;67759;51.972;5.650;2024-01-27T02:42:32;10.2;49.8
78467;SHT31;67759;51.972;5.650;2024-01-27T02:45:01;10.3;50.4
78467;SHT31;67759;51.972;5.650;2024-01-27T02:47:32;10.3;50.0
78467;SHT31;67759;51.972;5.650;2024-01-27T02:50:01;10.5;49.9
78467;SHT31;67759;51.972;5.650;2024-01-27T02:52:30;10.6;49.7
78467;SHT31;67759;51.972;5.650;2024-01-27T02:54:58;10.6;49.4
78467;SHT31;67759;51.972;5.650;2024-01-27T02:57:27;10.6;48.8
78467;SHT31;67759;51.972;5.650;2024-01-27T02:59:56;10.6;48.8
78467;SHT31;67759;51.972;5.650;2024-01-27T03:02:25;10.6;48.9
78467;SHT31;67759;51.972;5.650;2024-01-27T03:04:53;10.5;48.8
78467;SHT31;67759;51.972;5.650;2024-01-27T03:07:21;10.5;49.0
78467;SHT31;67759;51.972;5.650;2024-01-27T03:09:50;10.5;49.1
78467;SHT31;67759;51.972;5.650;2024-01-27T03:12:19;10.4;49.3
78467;SHT31;67759;51.972;5.650;2024-01-27T03:14:49;10.4;49.5
78467;SHT31;67759;51.972;5.650;2024-01-27T03:17:18;10.3;49.9
78467;SHT31;67759;51.972;5.650;2024-01-27T03:19:47;10.2;50.1
78467;SHT31;67759;51.972;5.650;2024-01-27T03:22:15;10.1;50.3
78467;SHT31;67759;51.972;5.650;2024-01-27T03:24:44;10.1;50.2
78467;SHT31;67759;51.972;5.650;2024-01-27T03:27:12;10.1;50.2
78467;SHT31;67759;51.972;5.650;2024-01-27T03:29:41;10.0;50.6
78467;SHT31;67759;51.972;5.650;2024-01-27T03:32:11;10.0;50.7
78467;SHT31;67759;51.972;5.650;2024-01-27T03:34:44;10.0;50.8
78467;SHT31;67759;51.972;5.650;2024-01-27T03:37:15;9.9;50.7
78467;SHT31;67759;51.972;5.650;2024-01-27T03:39:43;9.9;50.7
78467;SHT31;67759;51.972;5.650;2024-01-27T03:42:12;9.9;50.6
78467;SHT31;67759;51.972;5.650;2024-01-27T03:44:40;10.0;50.5
78467;SHT31;67759;51.972;5.650;2024-01-27T03:47:09;10.0;50.5
78467;SHT31;67759;51.972;5.650;2024-01-27T03:49:40;10.0;50.4
78467;SHT31;67759;51.972;5.650;2024-01-27T03:52:09;10.0;50.3
78467;SHT31;67759;51.972;5.650;2024-01-27T03:54:39;10.0;50.1
78467;SHT31;67759;51.972;5.650;2024-01-27T03:57:07;10.1;50.2
78467;SHT31;67759;51.972;5.650;2024-01-27T03:59:37;10.1;50.4
78467;SHT31;67759;51.972;5.650;2024-01-27T04:02:08;10.1;50.6
78467;SHT31;67759;51.972;5.650;2024-01-27T04:04:36;10.1;50.5
78467;SHT31;67759;51.972;5.650;2024-01-27T04:07:05;10.0;50.4
78467;SHT31;67759;51.972;5.650;2024-01-27T04:09:34;10.0;50.3
78467;SHT31;67759;51.972;5.650;2024-01-27T04:12:03;10.0;50.5
78467;SHT31;67759;51.972;5.650;2024-01-27T04:14:31;9.9;50.5
78467;SHT31;67759;51.972;5.650;2024-01-27T04:17:00;9.9;50.4
78467;SHT31;67759;51.972;5.650;2024-01-27T04:19:28;9.9;50.6
78467;SHT31;67759;51.972;5.650;2024-01-27T04:21:57;9.9;50.7
78467;SHT31;67759;51.972;5.650;2024-01-27T04:24:26;9.9;50.9
78467;SHT31;67759;51.972;5.650;2024-01-27T04:26:54;9.9;51.0
78467;SHT31;67759;51.972;5.650;2024-01-27T04:29:23;9.8;51.0
78467;SHT31;67759;51.972;5.650;2024-01-27T04:31:53;9.8;51.0
78467;SHT31;67759;51.972;5.650;2024-01-27T04:34:22;9.9;51.2
78467;SHT31;67759;51.972;5.650;2024-01-27T04:36:50;9.9;51.2
78467;SHT31;67759;51.972;5.650;2024-01-27T04:39:19;9.9;51.1
78467;SHT31;67759;51.972;5.650;2024-01-27T04:41:47;10.0;50.4
78467;SHT31;67759;51.972;5.650;2024-01-27T04:44:16;10.0;50.3
78467;SHT31;67759;51.972;5.650;2024-01-27T04:46:46;10.0;50.4
78467;SHT31;67759;51.972;5.650;2024-01-27T04:49:16;10.0;50.3
78467;SHT31;67759;51.972;5.650;2024-01-27T04:51:45;10.0;50.5
78467;SHT31;67759;51.972;5.650;2024-01-27T04:54:13;10.0;50.4
78467;SHT31;67759;51.972;5.650;2024-01-27T04:56:42;9.9;50.4
78467;SHT31;67759;51.972;5.650;2024-01-27T04:59:10;9.9;50.5
78467;SHT31;67759;51.972;5.650;2024-01-27T05:01:39;9.8;50.5
78467;SHT31;67759;51.972;5.650;2024-01-27T05:04:10;9.8;50.5
78467;SHT31;67759;51.972;5.650;2024-01-27T05:06:38;9.8;50.6
78467;SHT31;67759;51.972;5.650;2024-01-27T05:09:11;9.7;50.8
78467;SHT31;67759;51.972;5.650;2024-01-27T05:11:42;9.7;50.8
78467;SHT31;67759;51.972;5.650;2024-01-27T05:14:12;9.6;50.9
78467;SHT31;67759;51.972;5.650;2024-01-27T05:16:40;9.6;51.2
78467;SHT31;67759;51.972;5.650;2024-01-27T05:19:09;9.5;51.2
78467;SHT31;67759;51.972;5.650;2024-01-27T05:21:38;9.5;51.4
78467;SHT31;67759;51.972;5.650;2024-01-27T05:24:07;9.4;51.6
78467;SHT31;67759;51.972;5.650;2024-01-27T05:26:35;9.4;51.7
78467;SHT31;67759;51.972;5.650;2024-01-27T05:29:04;9.4;51.9
78467;SHT31;67759;51.972;5.650;2024-01-27T05:31:33;9.3;52.0
78467;SHT31;67759;51.972;5.650;2024-01-27T05:34:01;9.3;52.0
78467;SHT31;67759;51.972;5.650;2024-01-27T05:36:32;9.3;52.0
78467;SHT31;67759;51.972;5.650;2024-01-27T05:39:01;9.2;52.3
78467;SHT31;67759;51.972;5.650;2024-01-27T05:41:31;9.2;52.4
78467;SHT31;67759;51.972;5.650;2024-01-27T05:43:59;9.2;52.5
78467;SHT31;67759;51.972;5.650;2024-01-27T05:46:28;9.1;52.7
78467;SHT31;67759;51.972;5.650;2024-01-27T05:48:56;9.1;52.9
78467;SHT31;67759;51.972;5.650;2024-01-27T05:51:29;9.1;52.7
78467;SHT31;67759;51.972;5.650;2024-01-27T05:53:58;9.1;52.9
78467;SHT31;67759;51.972;5.650;2024-01-27T05:56:26;9.1;52.9
78467;SHT31;67759;51.972;5.650;2024-01-27T05:58:55;9.2;52.7
78467;SHT31;67759;51.972;5.650;2024-01-27T06:01:24;9.2;52.4
78467;SHT31;67759;51.972;5.650;2024-01-27T06:03:54;9.3;52.2
78467;SHT31;67759;51.972;5.650;2024-01-27T06:06:23;9.3;52.0
78467;SHT31;67759;51.972;5.650;2024-01-27T06:08:51;9.3;51.9
78467;SHT31;67759;51.972;5.650;2024-01-27T06:11:25;9.4;51.7
78467;SHT31;67759;51.972;5.650;2024-01-27T06:13:54;9.4;51.7
78467;SHT31;67759;51.972;5.650;2024-01-27T06:16:23;9.4;51.7
78467;SHT31;67759;51.972;5.650;2024-01-27T06:18:51;9.4;51.6
78467;SHT31;67759;51.972;5.650;2024-01-27T06:21:21;9.4;51.7
78467;SHT31;67759;51.972;5.650;2024-01-27T06:23:49;9.5;51.5
78467;SHT31;67759;51.972;5.650;2024-01-27T06:26:18;9.5;51.4
78467;SHT31;67759;51.972;5.650;2024-01-27T06:28:48;9.7;51.2
78467;SHT31;67759;51.972;5.650;2024-01-27T06:31:17;9.8;50.4
78467;SHT31;67759;51.972;5.650;2024-01-27T06:33:46;9.8;50.2
78467;SHT31;67759;51.972;5.650;2024-01-27T06:36:15;9.8;50.2
78467;SHT31;67759;51.972;5.650;2024-01-27T06:38:46;9.8;50.2
78467;SHT31;67759;51.972;5.650;2024-01-27T06:41:14;9.8;50.1
78467;SHT31;67759;51.972;5.650;2024-01-27T06:43:43;9.8;50.0
78467;SHT31;67759;51.972;5.650;2024-01-27T06:46:12;9.8;50.0
78467;SHT31;67759;51.972;5.650;2024-01-27T06:48:40;9.8;50.0
78467;SHT31;67759;51.972;5.650;2024-01-27T06:51:09;9.8;49.8
78467;SHT31;67759;51.972;5.650;2024-01-27T06:53:38;9.7;50.0
78467;SHT31;67759;51.972;5.650;2024-01-27T06:56:07;9.7;50.2
78467;SHT31;67759;51.972;5.650;2024-01-27T06:58:36;9.6;50.6
78467;SHT31;67759;51.972;5.650;2024-01-27T07:01:06;9.6;50.8
78467;SHT31;67759;51.972;5.650;2024-01-27T07:03:35;9.5;50.8
78467;SHT31;67759;51.972;5.650;2024-01-27T07:06:06;9.5;50.9
78467;SHT31;67759;51.972;5.650;2024-01-27T07:08:34;9.4;51.1
78467;SHT31;67759;51.972;5.650;2024-01-27T07:11:05;9.4;51.3
78467;SHT31;67759;51.972;5.650;2024-01-27T07:13:34;9.3;51.5
78467;SHT31;67759;51.972;5.650;2024-01-27T07:16:02;9.3;51.6
78467;SHT31;67759;51.972;5.650;2024-01-27T07:18:31;9.2;51.9
78467;SHT31;67759;51.972;5.650;2024-01-27T07:21:01;9.1;52.2
78467;SHT31;67759;51.972;5.650;2024-01-27T07:23:30;9.1;52.4
78467;SHT31;67759;51.972;5.650;2024-01-27T07:25:59;9.0;52.6
78467;SHT31;67759;51.972;5.650;2024-01-27T07:28:29;8.9;52.7
78467;SHT31;67759;51.972;5.650;2024-01-27T07:30:58;8.9;52.7
78467;SHT31;67759;51.972;5.650;2024-01-27T07:33:28;8.9;52.9
78467;SHT31;67759;51.972;5.650;2024-01-27T07:35:57;8.8;53.1
78467;SHT31;67759;51.972;5.650;2024-01-27T07:38:26;8.8;53.2
78467;SHT31;67759;51.972;5.650;2024-01-27T07:40:55;8.8;53.4
78467;SHT31;67759;51.972;5.650;2024-01-27T07:43:25;8.7;53.5
78467;SHT31;67759;51.972;5.650;2024-01-27T07:45:55;8.7;53.5
78467;SHT31;67759;51.972;5.650;2024-01-27T07:48:24;8.7;53.6
78467;SHT31;67759;51.972;5.650;2024-01-27T07:50:54;8.7;53.7
78467;SHT31;67759;51.972;5.650;2024-01-27T07:53:23;8.7;53.7
78467;SHT31;67759;51.972;5.650;2024-01-27T07:55:52;8.7;53.8
78467;SHT31;67759;51.972;5.650;2024-01-27T07:58:22;8.6;53.8
78467;SHT31;67759;51.972;5.650;2024-01-27T08:00:51;8.6;53.9
78467;SHT31;67759;51.972;5.650;2024-01-27T08:03:19;8.6;53.9
78467;SHT31;67759;51.972;5.650;2024-01-27T08:05:47;8.6;54.0
78467;SHT31;67759;51.972;5.650;2024-01-27T08:08:16;8.6;54.3
78467;SHT31;67759;51.972;5.650;2024-01-27T08:10:44;8.6;54.1
78467;SHT31;67759;51.972;5.650;2024-01-27T08:13:13;8.7;54.3
78467;SHT31;67759;51.972;5.650;2024-01-27T08:15:41;8.8;54.3
78467;SHT31;67759;51.972;5.650;2024-01-27T08:18:10;9.0;53.9
78467;SHT31;67759;51.972;5.650;2024-01-27T08:20:38;9.1;52.8
78467;SHT31;67759;51.972;5.650;2024-01-27T08:23:07;9.2;52.4
78467;SHT31;67759;51.972;5.650;2024-01-27T08:25:38;9.2;52.3
78467;SHT31;67759;51.972;5.650;2024-01-27T08:28:07;9.2;52.3
78467;SHT31;67759;51.972;5.650;2024-01-27T08:30:36;9.2;52.3
78467;SHT31;67759;51.972;5.650;2024-01-27T08:33:05;9.2;52.4
78467;SHT31;67759;51.972;5.650;2024-01-27T08:35:33;9.2;52.5
78467;SHT31;67759;51.972;5.650;2024-01-27T08:38:02;9.2;52.5
78467;SHT31;67759;51.972;5.650;2024-01-27T08:40:34;9.1;52.7
78467;SHT31;67759;51.972;5.650;2024-01-27T08:43:05;9.1;52.9
78467;SHT31;67759;51.972;5.650;2024-01-27T08:45:33;9.1;53.0
78467;SHT31;67759;51.972;5.650;2024-01-27T08:48:02;9.1;53.1
78467;SHT31;67759;51.972;5.650;2024-01-27T08:50:31;9.1;53.2
78467;SHT31;67759;51.972;5.650;2024-01-27T08:52:59;9.1;53.3
78467;SHT31;67759;51.972;5.650;2024-01-27T08:55:28;9.1;53.5
78467;SHT31;67759;51.972;5.650;2024-01-27T08:57:57;9.1;53.8
78467;SHT31;67759;51.972;5.650;2024-01-27T09:00:26;9.1;54.4
78467;SHT31;67759;51.972;5.650;2024-01-27T09:02:56;9.2;54.3
78467;SHT31;67759;51.972;5.650;2024-01-27T09:05:25;9.3;54.2
78467;SHT31;67759;51.972;5.650;2024-01-27T09:07:54;9.4;53.7
78467;SHT31;67759;51.972;5.650;2024-01-27T09:10:23;9.4;53.4
78467;SHT31;67759;51.972;5.650;2024-01-27T09:12:54;9.4;53.2
78467;SHT31;67759;51.972;5.650;2024-01-27T09:15:22;9.4;53.2
78467;SHT31;67759;51.972;5.650;2024-01-27T09:17:50;9.4;53.9
78467;SHT31;67759;51.972;5.650;2024-01-27T09:20:20;9.5;53.5
78467;SHT31;67759;51.972;5.650;2024-01-27T09:22:48;9.5;53.5
78467;SHT31;67759;51.972;5.650;2024-01-27T09:25:17;9.6;53.5
78467;SHT31;67759;51.972;5.650;2024-01-27T09:27:46;9.6;53.7
78467;SHT31;67759;51.972;5.650;2024-01-27T09:30:15;9.7;53.3
78467;SHT31;67759;51.972;5.650;2024-01-27T09:32:43;9.8;53.0
78467;SHT31;67759;51.972;5.650;2024-01-27T09:35:12;9.9;52.8
78467;SHT31;67759;51.972;5.650;2024-01-27T09:37:40;10.0;52.7
78467;SHT31;67759;51.972;5.650;2024-01-27T09:40:12;10.1;52.8
78467;SHT31;67759;51.972;5.650;2024-01-27T09:42:50;10.2;52.5
78467;SHT31;67759;51.972;5.650;2024-01-27T09:45:20;10.3;52.1
78467;SHT31;67759;51.972;5.650;2024-01-27T09:47:51;10.4;51.7
78467;SHT31;67759;51.972;5.650;2024-01-27T09:50:21;10.5;51.6
78467;SHT31;67759;51.972;5.650;2024-01-27T09:52:50;10.6;51.3
78467;SHT31;67759;51.972;5.650;2024-01-27T09:55:19;10.6;51.1
78467;SHT31;67759;51.972;5.650;2024-01-27T09:57:48;10.6;51.3
78467;SHT31;67759;51.972;5.650;2024-01-27T10:00:19;10.6;51.1
78467;SHT31;67759;51.972;5.650;2024-01-27T10:02:48;10.7;51.2
78467;SHT31;67759;51.972;5.650;2024-01-27T10:05:18;10.7;51.4
78467;SHT31;67759;51.972;5.650;2024-01-27T10:07:47;10.9;50.8
78467;SHT31;67759;51.972;5.650;2024-01-27T10:10:18;11.1;50.2
78467;SHT31;67759;51.972;5.650;2024-01-27T10:12:48;11.1;50.1
78467;SHT31;67759;51.972;5.650;2024-01-27T10:15:20;11.1;50.2
78467;SHT31;67759;51.972;5.650;2024-01-27T10:17:49;11.2;50.4
78467;SHT31;67759;51.972;5.650;2024-01-27T10:20:18;11.2;49.8
78467;SHT31;67759;51.972;5.650;2024-01-27T10:22:46;11.2;50.3
78467;SHT31;67759;51.972;5.650;2024-01-27T10:25:15;11.3;50.0
78467;SHT31;67759;51.972;5.650;2024-01-27T10:27:43;11.3;49.9
78467;SHT31;67759;51.972;5.650;2024-01-27T10:30:17;11.4;49.8
78467;SHT31;67759;51.972;5.650;2024-01-27T10:32:56;11.4;49.4
78467;SHT31;67759;51.972;5.650;2024-01-27T10:35:25;11.4;49.8
78467;SHT31;67759;51.972;5.650;2024-01-27T10:37:54;11.5;49.8
78467;SHT31;67759;51.972;5.650;2024-01-27T10:40:23;11.6;49.3
78467;SHT31;67759;51.972;5.650;2024-01-27T10:43:03;11.6;49.6
78467;SHT31;67759;51.972;5.650;2024-01-27T10:45:37;11.7;49.5
78467;SHT31;67759;51.972;5.650;2024-01-27T10:48:07;11.8;49.6
78467;SHT31;67759;51.972;5.650;2024-01-27T10:50:38;11.9;49.5
78467;SHT31;67759;51.972;5.650;2024-01-27T10:53:09;11.9;49.5
78467;SHT31;67759;51.972;5.650;2024-01-27T10:55:44;12.0;49.4
78467;SHT31;67759;51.972;5.650;2024-01-27T10:58:15;12.0;49.2
78467;SHT31;67759;51.972;5.650;2024-01-27T11:00:45;12.0;49.2
78467;SHT31;67759;51.972;5.650;2024-01-27T11:03:22;12.1;49.2
78467;SHT31;67759;51.972;5.650;2024-01-27T11:05:52;12.2;49.2
78467;SHT31;67759;51.972;5.650;2024-01-27T11:08:24;12.2;49.3
78467;SHT31;67759;51.972;5.650;2024-01-27T11:10:57;12.2;48.9
78467;SHT31;67759;51.972;5.650;2024-01-27T11:13:27;12.3;48.9
78467;SHT31;67759;51.972;5.650;2024-01-27T11:15:57;12.3;48.7
78467;SHT31;67759;51.972;5.650;2024-01-27T11:18:27;12.3;49.1
78467;SHT31;67759;51.972;5.650;2024-01-27T11:20:58;12.3;49.3
78467;SHT31;67759;51.972;5.650;2024-01-27T11:23:34;12.3;49.5
78467;SHT31;67759;51.972;5.650;2024-01-27T11:26:05;12.4;49.2
78467;SHT31;67759;51.972;5.650;2024-01-27T11:28:34;12.4;49.4
78467;SHT31;67759;51.972;5.650;2024-01-27T11:31:06;12.4;49.4
78467;SHT31;67759;51.972;5.650;2024-01-27T11:33:46;12.5;48.8
78467;SHT31;67759;51.972;5.650;2024-01-27T11:36:21;12.5;48.8
78467;SHT31;67759;51.972;5.650;2024-01-27T11:38:51;12.6;49.2
78467;SHT31;67759;51.972;5.650;2024-01-27T11:41:27;12.6;49.1
78467;SHT31;67759;51.972;5.650;2024-01-27T11:43:58;12.6;49.0
78467;SHT31;67759;51.972;5.650;2024-01-27T11:46:28;12.6;48.2
78467;SHT31;67759;51.972;5.650;2024-01-27T11:48:57;12.7;48.3
78467;SHT31;67759;51.972;5.650;2024-01-27T11:51:25;12.7;48.2
78467;SHT31;67759;51.972;5.650;2024-01-27T11:53:54;12.7;48.1
78467;SHT31;67759;51.972;5.650;2024-01-27T11:56:23;12.8;48.1
78467;SHT31;67759;51.972;5.650;2024-01-27T11:58:52;12.8;47.4
78467;SHT31;67759;51.972;5.650;2024-01-27T12:01:23;13.0;47.3
78467;SHT31;67759;51.972;5.650;2024-01-27T12:03:52;13.0;47.1
78467;SHT31;67759;51.972;5.650;2024-01-27T12:06:23;13.1;46.7
78467;SHT31;67759;51.972;5.650;2024-01-27T12:08:55;13.1;46.5
78467;SHT31;67759;51.972;5.650;2024-01-27T12:11:24;13.2;46.4
78467;SHT31;67759;51.972;5.650;2024-01-27T12:13:53;13.2;46.1
78467;SHT31;67759;51.972;5.650;2024-01-27T12:16:22;13.2;46.1
78467;SHT31;67759;51.972;5.650;2024-01-27T12:18:53;13.3;45.6
78467;SHT31;67759;51.972;5.650;2024-01-27T12:21:22;13.2;45.8
78467;SHT31;67759;51.972;5.650;2024-01-27T12:23:56;13.2;46.4
78467;SHT31;67759;51.972;5.650;2024-01-27T12:26:28;13.3;46.5
78467;SHT31;67759;51.972;5.650;2024-01-27T12:28:57;13.4;46.3
78467;SHT31;67759;51.972;5.650;2024-01-27T12:31:29;13.4;45.9
78467;SHT31;67759;51.972;5.650;2024-01-27T12:33:58;13.5;45.9
78467;SHT31;67759;51.972;5.650;2024-01-27T12:36:27;13.6;45.9
78467;SHT31;67759;51.972;5.650;2024-01-27T12:38:58;13.7;45.2
78467;SHT31;67759;51.972;5.650;2024-01-27T12:41:28;13.7;45.1
78467;SHT31;67759;51.972;5.650;2024-01-27T12:43:59;13.8;45.1
78467;SHT31;67759;51.972;5.650;2024-01-27T12:46:28;13.8;45.0
78467;SHT31;67759;51.972;5.650;2024-01-27T12:48:58;13.8;45.1
78467;SHT31;67759;51.972;5.650;2024-01-27T12:51:26;13.9;45.0
78467;SHT31;67759;51.972;5.650;2024-01-27T12:53:54;13.9;44.8
78467;SHT31;67759;51.972;5.650;2024-01-27T12:56:23;13.9;44.9
78467;SHT31;67759;51.972;5.650;2024-01-27T12:58:53;13.9;44.7
78467;SHT31;67759;51.972;5.650;2024-01-27T13:01:24;14.0;44.9
78467;SHT31;67759;51.972;5.650;2024-01-27T13:03:53;14.0;45.1
78467;SHT31;67759;51.972;5.650;2024-01-27T13:06:22;14.0;44.6
78467;SHT31;67759;51.972;5.650;2024-01-27T13:08:51;14.0;44.9
78467;SHT31;67759;51.972;5.650;2024-01-27T13:11:20;14.0;44.8
78467;SHT31;67759;51.972;5.650;2024-01-27T13:13:49;14.1;45.0
78467;SHT31;67759;51.972;5.650;2024-01-27T13:16:18;14.1;44.9
78467;SHT31;67759;51.972;5.650;2024-01-27T13:18:47;14.2;44.8
78467;SHT31;67759;51.972;5.650;2024-01-27T13:21:15;14.2;44.4
78467;SHT31;67759;51.972;5.650;2024-01-27T13:23:44;14.3;44.5
78467;SHT31;67759;51.972;5.650;2024-01-27T13:26:13;14.3;44.7
78467;SHT31;67759;51.972;5.650;2024-01-27T13:28:42;14.4;44.5
78467;SHT31;67759;51.972;5.650;2024-01-27T13:31:10;14.5;43.7
78467;SHT31;67759;51.972;5.650;2024-01-27T13:33:39;14.6;43.5
78467;SHT31;67759;51.972;5.650;2024-01-27T13:36:08;14.6;43.1
78467;SHT31;67759;51.972;5.650;2024-01-27T13:38:37;14.7;43.0
78467;SHT31;67759;51.972;5.650;2024-01-27T13:41:05;14.7;42.8
78467;SHT31;67759;51.972;5.650;2024-01-27T13:43:34;14.7;42.7
78467;SHT31;67759;51.972;5.650;2024-01-27T13:46:03;14.8;42.6
78467;SHT31;67759;51.972;5.650;2024-01-27T13:48:32;14.8;42.5
78467;SHT31;67759;51.972;5.650;2024-01-27T13:51:00;14.9;42.0
78467;SHT31;67759;51.972;5.650;2024-01-27T13:53:29;15.0;41.5
78467;SHT31;67759;51.972;5.650;2024-01-27T13:55:58;15.0;41.8
78467;SHT31;67759;51.972;5.650;2024-01-27T13:58:29;15.1;41.7
78467;SHT31;67759;51.972;5.650;2024-01-27T14:00:57;15.1;41.3
78467;SHT31;67759;51.972;5.650;2024-01-27T14:03:26;15.1;41.7
78467;SHT31;67759;51.972;5.650;2024-01-27T14:05:55;15.2;41.3
78467;SHT31;67759;51.972;5.650;2024-01-27T14:08:24;15.2;41.4
78467;SHT31;67759;51.972;5.650;2024-01-27T14:10:53;15.2;41.7
78467;SHT31;67759;51.972;5.650;2024-01-27T14:13:21;15.2;41.2
78467;SHT31;67759;51.972;5.650;2024-01-27T14:15:50;15.2;40.5
78467;SHT31;67759;51.972;5.650;2024-01-27T14:18:19;15.3;41.2
78467;SHT31;67759;51.972;5.650;2024-01-27T14:20:49;15.2;40.9
78467;SHT31;67759;51.972;5.650;2024-01-27T14:23:17;15.2;41.1
78467;SHT31;67759;51.972;5.650;2024-01-27T14:25:46;15.2;41.0
78467;SHT31;67759;51.972;5.650;2024-01-27T14:28:15;15.1;41.2
78467;SHT31;67759;51.972;5.650;2024-01-27T14:30:44;15.1;40.7
78467;SHT31;67759;51.972;5.650;2024-01-27T14:33:12;15.0;41.0
78467;SHT31;67759;51.972;5.650;2024-01-27T14:35:46;15.0;41.3
78467;SHT31;67759;51.972;5.650;2024-01-27T14:38:17;14.9;41.2
78467;SHT31;67759;51.972;5.650;2024-01-27T14:40:46;14.9;41.3
78467;SHT31;67759;51.972;5.650;2024-01-27T14:43:15;14.8;41.5
78467;SHT31;67759;51.972;5.650;2024-01-27T14:45:46;14.8;41.6
78467;SHT31;67759;51.972;5.650;2024-01-27T14:48:14;14.7;41.8
78467;SHT31;67759;51.972;5.650;2024-01-27T14:50:45;14.7;42.0
78467;SHT31;67759;51.972;5.650;2024-01-27T14:53:19;14.6;41.9
78467;SHT31;67759;51.972;5.650;2024-01-27T14:55:47;14.6;42.1
78467;SHT31;67759;51.972;5.650;2024-01-27T14:58:16;14.6;42.5
78467;SHT31;67759;51.972;5.650;2024-01-27T15:00:45;14.6;42.2
78467;SHT31;67759;51.972;5.650;2024-01-27T15:03:18;14.6;42.4
78467;SHT31;67759;51.972;5.650;2024-01-27T15:05:48;14.6;42.2
78467;SHT31;67759;51.972;5.650;2024-01-27T15:08:18;14.6;42.2
78467;SHT31;67759;51.972;5.650;2024-01-27T15:10:47;14.6;42.4
78467;SHT31;67759;51.972;5.650;2024-01-27T15:13:16;14.6;42.4
78467;SHT31;67759;51.972;5.650;2024-01-27T15:15:49;14.6;42.5
78467;SHT31;67759;51.972;5.650;2024-01-27T15:18:18;14.6;42.5
78467;SHT31;67759;51.972;5.650;2024-01-27T15:20:48;14.6;42.7
78467;SHT31;67759;51.972;5.650;2024-01-27T15:23:17;14.6;43.1
78467;SHT31;67759;51.972;5.650;2024-01-27T15:25:50;14.6;43.0
78467;SHT31;67759;51.972;5.650;2024-01-27T15:28:19;14.6;42.5
78467;SHT31;67759;51.972;5.650;2024-01-27T15:30:47;14.6;42.3
78467;SHT31;67759;51.972;5.650;2024-01-27T15:33:16;14.6;42.3
78467;SHT31;67759;51.972;5.650;2024-01-27T15:35:44;14.6;42.5
78467;SHT31;67759;51.972;5.650;2024-01-27T15:38:13;14.6;43.1
78467;SHT31;67759;51.972;5.650;2024-01-27T15:40:42;14.6;43.2
78467;SHT31;67759;51.972;5.650;2024-01-27T15:43:11;14.6;42.3
78467;SHT31;67759;51.972;5.650;2024-01-27T15:45:39;14.7;42.2
78467;SHT31;67759;51.972;5.650;2024-01-27T15:48:08;14.6;42.4
78467;SHT31;67759;51.972;5.650;2024-01-27T15:50:39;14.6;42.3
78467;SHT31;67759;51.972;5.650;2024-01-27T15:53:09;14.6;42.4
78467;SHT31;67759;51.972;5.650;2024-01-27T15:55:38;14.6;42.2
78467;SHT31;67759;51.972;5.650;2024-01-27T15:58:06;14.5;42.2
78467;SHT31;67759;51.972;5.650;2024-01-27T16:00:35;14.4;42.4
78467;SHT31;67759;51.972;5.650;2024-01-27T16:03:04;14.3;43.0
78467;SHT31;67759;51.972;5.650;2024-01-27T16:05:34;14.2;43.0
78467;SHT31;67759;51.972;5.650;2024-01-27T16:08:03;14.2;43.2
78467;SHT31;67759;51.972;5.650;2024-01-27T16:10:33;14.1;43.5
78467;SHT31;67759;51.972;5.650;2024-01-27T16:13:01;14.0;43.8
78467;SHT31;67759;51.972;5.650;2024-01-27T16:15:30;13.9;44.0
78467;SHT31;67759;51.972;5.650;2024-01-27T16:17:58;13.8;44.3
78467;SHT31;67759;51.972;5.650;2024-01-27T16:20:27;13.7;44.3